Time;durP1;ratioP1;P1;durP2;ratioP2;P2;SDS_P1;SDS_P2;PMS_P1;PMS_P2;Temp;Humidity;BMP_temperature;BMP_pressure;BME280_temperature;BME280_humidity;BME280_pressure;Samples;Min_cycle;Max_cycle;Signal;HPM_P1;HPM_P2
2023/08/26 00:02:10;;;;;;;28.37;23.70;;;19.40;99.90;;;;;;5072254;28;20465;-79
2023/08/26 00:04:37;;;;;;;26.63;22.13;;;19.30;99.90;;;;;;5071939;28;20455;-78
2023/08/26 00:07:06;;;;;;;26.20;21.63;;;19.30;99.90;;;;;;5071605;28;20491;-78
2023/08/26 00:09:34;;;;;;;27.00;23.47;;;19.30;99.90;;;;;;5071867;28;20463;-79
2023/08/26 00:12:01;;;;;;;27.60;23.13;;;19.30;99.90;;;;;;5072080;28;20443;-78
2023/08/26 00:14:28;;;;;;;23.27;20.87;;;19.20;99.90;;;;;;5072380;28;20453;-77
2023/08/26 00:16:54;;;;;;;28.33;24.40;;;19.20;99.90;;;;;;5072119;28;20454;-78
2023/08/26 00:19:21;;;;;;;26.33;21.70;;;19.10;99.90;;;;;;5073471;28;20477;-79
2023/08/26 00:21:50;;;;;;;25.67;21.20;;;19.10;99.90;;;;;;5073369;28;20450;-79
2023/08/26 00:24:17;;;;;;;30.20;24.10;;;19.20;99.90;;;;;;5073598;28;20453;-77
2023/08/26 00:26:45;;;;;;;28.13;24.07;;;19.10;99.90;;;;;;5073453;28;20497;-79
2023/08/26 00:29:12;;;;;;;24.93;22.20;;;19.10;99.90;;;;;;5060652;28;20589;-78
2023/08/26 00:31:39;;;;;;;26.83;21.53;;;19.10;99.90;;;;;;5069521;28;20486;-78
2023/08/26 00:34:05;;;;;;;25.77;23.07;;;19.10;99.90;;;;;;5064877;28;20454;-76
2023/08/26 00:36:32;;;;;;;26.07;21.70;;;19.10;99.90;;;;;;5068075;28;20451;-78
2023/08/26 00:38:59;;;;;;;26.30;22.30;;;19.10;99.90;;;;;;5072238;28;20467;-79
2023/08/26 00:41:26;;;;;;;26.27;23.37;;;19.10;99.90;;;;;;5072860;28;20538;-81
2023/08/26 00:43:54;;;;;;;23.60;21.13;;;19.10;99.90;;;;;;5069176;28;21072;-78
2023/08/26 00:46:23;;;;;;;28.50;24.47;;;19.10;99.90;;;;;;5065923;28;20496;-78
2023/08/26 00:48:50;;;;;;;28.80;23.00;;;19.20;99.90;;;;;;5062852;28;20471;-78
2023/08/26 00:51:19;;;;;;;25.53;22.70;;;19.20;99.90;;;;;;5063715;28;20951;-79
2023/08/26 00:53:46;;;;;;;27.77;24.10;;;19.10;99.90;;;;;;5072212;28;20462;-78
2023/08/26 00:56:13;;;;;;;25.60;22.80;;;19.20;99.90;;;;;;5063852;28;20541;-78
2023/08/26 00:58:41;;;;;;;27.87;23.67;;;19.10;99.90;;;;;;5069222;28;20549;-78
2023/08/26 01:01:09;;;;;;;29.47;25.10;;;19.20;99.90;;;;;;5065045;28;20455;-78
2023/08/26 01:03:36;;;;;;;28.40;24.53;;;19.20;99.90;;;;;;5064512;28;20448;-76
2023/08/26 01:06:03;;;;;;;28.77;24.80;;;19.20;99.90;;;;;;5069654;28;20485;-81
2023/08/26 01:08:31;;;;;;;31.03;24.57;;;19.20;99.90;;;;;;5071942;28;20474;-77
2023/08/26 01:11:06;;;;;;;28.93;25.47;;;19.30;99.90;;;;;;5071648;28;20557;-78
2023/08/26 01:13:50;;;;;;;26.80;23.40;;;19.30;99.90;;;;;;5071337;28;20465;-78
2023/08/26 01:16:21;;;;;;;28.13;23.67;;;19.30;99.90;;;;;;5064031;28;20969;-77
2023/08/26 01:18:49;;;;;;;31.53;24.20;;;19.30;99.90;;;;;;5071234;28;20479;-78
2023/08/26 01:21:19;;;;;;;33.47;28.57;;;19.30;99.90;;;;;;5075377;28;20461;-79
2023/08/26 01:23:48;;;;;;;36.10;27.20;;;19.30;99.90;;;;;;5070174;28;20453;-78
2023/08/26 01:26:15;;;;;;;35.87;29.97;;;19.30;99.90;;;;;;5078333;28;20555;-78
2023/08/26 01:28:42;;;;;;;37.67;29.07;;;19.30;99.90;;;;;;5078568;28;20837;-79
2023/08/26 01:31:11;;;;;;;38.07;30.93;;;19.30;99.90;;;;;;5077880;28;20458;-79
2023/08/26 01:33:43;;;;;;;32.30;28.60;;;19.10;99.90;;;;;;5079881;28;21033;-78
2023/08/26 01:36:14;;;;;;;30.73;25.60;;;19.00;99.90;;;;;;5076912;28;21106;-78
2023/08/26 01:38:42;;;;;;;32.50;27.17;;;19.10;99.90;;;;;;5077870;28;20477;-80
2023/08/26 01:41:12;;;;;;;38.10;29.87;;;19.10;99.90;;;;;;5077416;28;20447;-80
2023/08/26 01:43:39;;;;;;;26.60;23.60;;;19.00;99.90;;;;;;5083894;28;20447;-79
2023/08/26 01:46:06;;;;;;;29.30;23.27;;;19.10;99.90;;;;;;5080027;28;21030;-79
2023/08/26 01:48:33;;;;;;;29.67;24.10;;;19.10;99.90;;;;;;5059255;28;20474;-80
2023/08/26 01:51:00;;;;;;;25.67;22.73;;;19.10;99.90;;;;;;5066557;28;20455;-79
2023/08/26 01:53:27;;;;;;;24.53;21.87;;;19.00;99.90;;;;;;5076695;28;20459;-78
2023/08/26 01:55:54;;;;;;;31.03;23.90;;;18.90;99.90;;;;;;5076435;28;20455;-79
2023/08/26 01:58:22;;;;;;;26.47;21.37;;;19.00;99.90;;;;;;5076864;28;20566;-78
2023/08/26 02:00:48;;;;;;;22.10;19.13;;;18.90;99.90;;;;;;5077008;28;20545;-79
2023/08/26 02:03:15;;;;;;;24.87;20.70;;;18.90;99.90;;;;;;5076152;28;20455;-81
2023/08/26 02:05:42;;;;;;;22.63;19.20;;;18.90;99.90;;;;;;5075486;28;20824;-77
2023/08/26 02:08:09;;;;;;;25.17;18.17;;;18.90;99.90;;;;;;5076161;28;20493;-80
2023/08/26 02:10:36;;;;;;;19.80;17.70;;;18.90;99.90;;;;;;5075982;28;20451;-81
2023/08/26 02:13:03;;;;;;;25.20;18.57;;;18.90;99.90;;;;;;5075893;28;20451;-79
2023/08/26 02:15:34;;;;;;;21.07;18.07;;;18.90;99.90;;;;;;5074821;28;20455;-78
2023/08/26 02:18:01;;;;;;;20.60;18.40;;;18.90;99.90;;;;;;5076651;28;20486;-78
2023/08/26 02:20:27;;;;;;;27.30;19.47;;;18.90;99.90;;;;;;5076109;28;20505;-79
2023/08/26 02:22:54;;;;;;;19.73;17.63;;;18.80;99.90;;;;;;5075655;28;20478;-81
2023/08/26 02:25:21;;;;;;;17.70;15.83;;;18.80;99.90;;;;;;5076426;28;20455;-79
2023/08/26 02:27:48;;;;;;;21.83;17.80;;;18.90;99.90;;;;;;5075352;28;21050;-79
2023/08/26 02:30:15;;;;;;;21.00;18.33;;;18.90;99.90;;;;;;5075823;28;20477;-82
2023/08/26 02:32:43;;;;;;;16.83;15.03;;;18.90;99.90;;;;;;5074849;28;20459;-79
2023/08/26 02:35:09;;;;;;;19.77;17.63;;;18.90;99.90;;;;;;5075894;28;20530;-81
2023/08/26 02:37:36;;;;;;;16.43;14.07;;;18.80;99.90;;;;;;5075973;28;20845;-79
2023/08/26 02:40:05;;;;;;;16.70;9.93;;;18.60;99.90;;;;;;5075974;28;20451;-80
2023/08/26 02:42:32;;;;;;;10.57;6.37;;;18.20;99.90;;;;;;5076695;28;20505;-80
2023/08/26 02:45:00;;;;;;;8.10;5.80;;;18.00;99.90;;;;;;5076572;28;20481;-82
2023/08/26 02:47:27;;;;;;;10.07;5.17;;;17.90;99.90;;;;;;5075888;28;20492;-78
2023/08/26 02:49:55;;;;;;;5.43;3.80;;;17.80;99.90;;;;;;5076176;28;20779;-79
2023/08/26 02:52:21;;;;;;;6.17;4.13;;;17.70;99.90;;;;;;5076345;28;20450;-82
2023/08/26 02:54:47;;;;;;;9.20;3.80;;;17.60;99.90;;;;;;5075499;28;20449;-78
2023/08/26 02:57:14;;;;;;;10.17;3.93;;;17.50;99.90;;;;;;5076076;28;20298;-80
2023/08/26 02:59:41;;;;;;;8.47;2.73;;;17.40;99.90;;;;;;5076808;28;20448;-79
2023/08/26 03:02:08;;;;;;;7.47;2.70;;;17.20;99.90;;;;;;5076253;28;20458;-81
2023/08/26 03:04:35;;;;;;;5.63;2.60;;;17.00;99.90;;;;;;5076521;28;20455;-80
2023/08/26 03:07:03;;;;;;;6.77;2.57;;;16.90;99.90;;;;;;5075926;28;20577;-79
2023/08/26 03:09:30;;;;;;;5.10;2.80;;;16.80;99.90;;;;;;5076972;28;20870;-81
2023/08/26 03:11:57;;;;;;;7.83;2.37;;;16.70;99.90;;;;;;5076388;28;20460;-79
2023/08/26 03:14:24;;;;;;;8.13;3.23;;;16.70;99.90;;;;;;5075693;28;20826;-79
2023/08/26 03:16:51;;;;;;;4.40;2.40;;;16.50;99.90;;;;;;5074582;28;20535;-82
2023/08/26 03:19:18;;;;;;;4.90;2.60;;;16.50;99.90;;;;;;5075251;28;20556;-78
2023/08/26 03:21:45;;;;;;;5.30;2.53;;;16.40;99.90;;;;;;5075168;28;20448;-79
2023/08/26 03:24:15;;;;;;;5.57;2.60;;;16.40;99.90;;;;;;5075774;28;20438;-80
2023/08/26 03:26:42;;;;;;;5.60;2.60;;;16.30;99.90;;;;;;5074732;28;20486;-78
2023/08/26 03:29:08;;;;;;;4.07;2.23;;;16.30;99.90;;;;;;5075133;28;20502;-79
2023/08/26 03:31:35;;;;;;;8.20;3.07;;;16.20;99.90;;;;;;5075166;28;20457;-80
2023/08/26 03:34:02;;;;;;;4.93;2.63;;;16.10;99.90;;;;;;5075648;28;20539;-79
2023/08/26 03:36:29;;;;;;;5.13;2.57;;;16.20;99.90;;;;;;5075546;28;20460;-79
2023/08/26 03:38:56;;;;;;;5.70;2.63;;;16.10;99.90;;;;;;5074908;28;20469;-79
2023/08/26 03:41:24;;;;;;;6.50;2.53;;;16.10;99.90;;;;;;5074696;28;20451;-79
2023/08/26 03:43:51;;;;;;;7.13;2.50;;;16.00;99.90;;;;;;5074734;28;20521;-80
2023/08/26 03:46:18;;;;;;;6.90;3.00;;;16.00;99.90;;;;;;5074886;28;20487;-79
2023/08/26 03:48:45;;;;;;;6.60;3.53;;;16.00;99.90;;;;;;5075050;28;20489;-79
2023/08/26 03:51:11;;;;;;;7.27;3.07;;;16.10;99.90;;;;;;5074948;28;20894;-81
2023/08/26 03:53:38;;;;;;;4.20;2.27;;;16.10;99.90;;;;;;5074766;28;20462;-82
2023/08/26 03:56:05;;;;;;;3.40;2.37;;;16.00;99.90;;;;;;5073853;28;20964;-79
2023/08/26 03:58:33;;;;;;;11.97;2.73;;;15.90;99.90;;;;;;5057262;28;20850;-79
2023/08/26 04:01:02;;;;;;;4.03;2.80;;;15.90;99.90;;;;;;5071043;28;20461;-79
2023/08/26 04:03:28;;;;;;;3.33;2.30;;;16.00;99.90;;;;;;5075154;28;20451;-82
2023/08/26 04:06:00;;;;;;;2.43;2.20;;;16.00;99.90;;;;;;5074487;28;20538;-81
2023/08/26 04:08:26;;;;;;;3.70;2.40;;;16.00;99.90;;;;;;5074544;28;20494;-79
2023/08/26 04:10:55;;;;;;;4.00;1.97;;;16.00;99.90;;;;;;5075834;28;20478;-79
2023/08/26 04:13:24;;;;;;;3.10;2.00;;;15.90;99.90;;;;;;5072638;28;20466;-78
2023/08/26 04:15:54;;;;;;;4.53;2.33;;;15.90;99.90;;;;;;5072107;28;20456;-80
2023/08/26 04:18:22;;;;;;;5.53;2.33;;;15.80;99.90;;;;;;5072706;28;20995;-79
2023/08/26 04:20:49;;;;;;;4.17;1.90;;;15.80;99.90;;;;;;5071986;28;20508;-79
2023/08/26 04:23:15;;;;;;;5.47;2.47;;;15.80;99.90;;;;;;5073737;28;20461;-80
2023/08/26 04:25:43;;;;;;;4.80;2.07;;;15.70;99.90;;;;;;5072848;28;20527;-78
2023/08/26 04:28:11;;;;;;;3.80;2.27;;;15.70;99.90;;;;;;5073441;28;20490;-80
2023/08/26 04:30:38;;;;;;;3.73;2.10;;;15.80;99.90;;;;;;5072315;28;20458;-81
2023/08/26 04:33:07;;;;;;;5.00;2.13;;;15.80;99.90;;;;;;5073452;28;20480;-78
2023/08/26 04:35:34;;;;;;;4.20;2.20;;;15.80;99.90;;;;;;5073175;28;20446;-82
2023/08/26 04:38:01;;;;;;;3.73;2.27;;;15.70;99.90;;;;;;5074667;28;20468;-78
2023/08/26 04:40:28;;;;;;;4.63;2.30;;;15.70;99.90;;;;;;5074395;28;20553;-83
2023/08/26 04:42:55;;;;;;;8.07;2.30;;;15.70;99.90;;;;;;5074835;28;20459;-81
2023/08/26 04:45:22;;;;;;;3.40;1.90;;;15.80;99.90;;;;;;5074718;28;20524;-81
2023/08/26 04:47:49;;;;;;;3.93;2.10;;;15.80;99.90;;;;;;5074782;28;20490;-81
2023/08/26 04:50:18;;;;;;;4.77;2.07;;;15.60;99.90;;;;;;5077564;28;20472;-82
2023/08/26 04:52:44;;;;;;;6.77;2.90;;;15.60;99.90;;;;;;5079245;28;20457;-83
2023/08/26 04:55:14;;;;;;;3.30;2.17;;;15.70;99.90;;;;;;5080006;28;20462;-82
2023/08/26 04:57:41;;;;;;;3.27;2.10;;;15.70;99.90;;;;;;5083633;28;20565;-82
2023/08/26 05:00:10;;;;;;;5.37;2.87;;;15.70;99.90;;;;;;5082700;28;20541;-81
2023/08/26 05:02:37;;;;;;;3.73;2.60;;;15.70;99.90;;;;;;5081133;28;20446;-82
2023/08/26 05:05:04;;;;;;;3.97;2.07;;;15.80;99.90;;;;;;5081125;28;20537;-82
2023/08/26 05:07:33;;;;;;;7.50;2.17;;;15.80;99.90;;;;;;5083332;28;20481;-85
2023/08/26 05:10:00;;;;;;;3.63;1.70;;;15.70;99.90;;;;;;5056649;22;20508;-81
2023/08/26 05:12:27;;;;;;;3.60;2.03;;;15.70;99.90;;;;;;5051498;28;20450;-81
2023/08/26 05:14:54;;;;;;;4.30;2.17;;;15.70;99.90;;;;;;5052283;28;20459;-81
2023/08/26 05:17:20;;;;;;;3.70;2.37;;;15.80;99.90;;;;;;5044240;28;20442;-82
2023/08/26 05:19:47;;;;;;;9.40;3.80;;;15.80;99.90;;;;;;5033593;28;20482;-81
2023/08/26 05:22:14;;;;;;;5.47;2.20;;;15.80;99.90;;;;;;5032724;28;20453;-82
2023/08/26 05:24:42;;;;;;;8.37;2.83;;;15.70;99.90;;;;;;5050526;28;20453;-81
2023/08/26 05:27:09;;;;;;;3.87;1.80;;;15.70;99.90;;;;;;5049272;28;20488;-83
2023/08/26 05:29:36;;;;;;;3.73;2.30;;;15.80;99.90;;;;;;5058933;28;20474;-82
2023/08/26 05:32:03;;;;;;;5.30;2.17;;;15.80;99.90;;;;;;5058642;28;20445;-82
2023/08/26 05:34:29;;;;;;;4.00;2.30;;;15.80;99.90;;;;;;5054587;28;21031;-81
2023/08/26 05:36:56;;;;;;;4.43;2.43;;;15.80;99.90;;;;;;5038883;28;20942;-81
2023/08/26 05:39:23;;;;;;;3.80;2.17;;;15.80;99.90;;;;;;5039669;28;20470;-82
2023/08/26 05:41:51;;;;;;;4.30;2.07;;;15.90;99.90;;;;;;5039467;28;20459;-82
2023/08/26 05:44:18;;;;;;;5.10;2.73;;;15.90;99.90;;;;;;5039529;28;20449;-82
2023/08/26 05:46:45;;;;;;;4.70;2.30;;;15.90;99.90;;;;;;5039584;28;20825;-82
2023/08/26 05:49:11;;;;;;;6.57;2.20;;;15.90;99.90;;;;;;5039006;28;20472;-83
2023/08/26 05:51:38;;;;;;;7.97;2.60;;;15.90;99.90;;;;;;5034259;28;20450;-80
2023/08/26 05:54:05;;;;;;;3.37;2.00;;;15.90;99.90;;;;;;5026739;28;20500;-80
2023/08/26 05:56:32;;;;;;;4.37;2.23;;;15.90;99.90;;;;;;5032605;28;20485;-82
2023/08/26 05:59:00;;;;;;;7.60;2.93;;;15.90;99.90;;;;;;5018775;28;21015;-81
2023/08/26 06:01:27;;;;;;;3.83;1.90;;;16.00;99.90;;;;;;5018063;28;20460;-81
2023/08/26 06:03:56;;;;;;;5.20;2.80;;;15.90;99.90;;;;;;5017529;28;20449;-80
2023/08/26 06:06:22;;;;;;;8.37;2.60;;;15.90;99.90;;;;;;5022748;28;20954;-80
2023/08/26 06:08:49;;;;;;;6.87;2.17;;;15.90;99.90;;;;;;5017552;28;20577;-82
2023/08/26 06:11:16;;;;;;;3.23;2.17;;;15.90;99.90;;;;;;5018335;28;20442;-80
2023/08/26 06:13:43;;;;;;;4.80;2.23;;;16.00;99.90;;;;;;5024049;28;20988;-80
2023/08/26 06:16:11;;;;;;;6.07;2.50;;;16.00;99.90;;;;;;5040819;28;20836;-80
2023/08/26 06:18:38;;;;;;;4.33;2.03;;;16.00;99.90;;;;;;5034856;28;20474;-80
2023/08/26 06:21:05;;;;;;;3.30;1.70;;;16.00;99.90;;;;;;5041918;28;20858;-80
2023/08/26 06:23:32;;;;;;;3.70;1.90;;;16.00;99.90;;;;;;5046106;28;20457;-81
2023/08/26 06:25:59;;;;;;;3.53;2.03;;;16.10;99.90;;;;;;5037251;28;20459;-81
2023/08/26 06:28:25;;;;;;;5.03;1.70;;;16.10;99.90;;;;;;5022687;28;20495;-80
2023/08/26 06:30:58;;;;;;;3.50;1.73;;;16.10;99.90;;;;;;5031825;28;20461;-81
2023/08/26 06:33:26;;;;;;;6.00;2.00;;;16.20;99.90;;;;;;5047146;28;20460;-81
2023/08/26 06:35:53;;;;;;;3.93;1.87;;;16.20;99.90;;;;;;5045777;28;20466;-81
2023/08/26 06:38:20;;;;;;;6.33;2.90;;;16.10;99.90;;;;;;5036140;28;20531;-79
2023/08/26 06:40:53;;;;;;;4.13;1.90;;;16.20;99.90;;;;;;5039656;28;20464;-80
2023/08/26 06:43:20;;;;;;;5.30;1.70;;;16.30;99.90;;;;;;5036858;28;20452;-81
2023/08/26 06:45:47;;;;;;;4.47;1.57;;;16.20;99.90;;;;;;5041751;28;20554;-80
2023/08/26 06:48:14;;;;;;;3.50;1.70;;;16.30;99.90;;;;;;5026439;28;20503;-81
2023/08/26 06:50:43;;;;;;;3.73;1.73;;;16.40;99.90;;;;;;5047025;28;20447;-80
2023/08/26 06:53:10;;;;;;;6.53;1.70;;;16.40;99.90;;;;;;5027386;28;20449;-81
2023/08/26 06:55:36;;;;;;;5.37;1.67;;;16.50;99.90;;;;;;5023745;28;20470;-82
2023/08/26 06:58:03;;;;;;;5.87;1.90;;;16.50;99.90;;;;;;5026038;28;20445;-80
2023/08/26 07:00:30;;;;;;;5.43;1.60;;;16.50;99.90;;;;;;5034064;28;20465;-81
2023/08/26 07:02:57;;;;;;;5.13;1.53;;;16.50;99.90;;;;;;5025110;28;20524;-79
2023/08/26 07:05:24;;;;;;;5.20;1.27;;;16.50;99.90;;;;;;5029645;28;20454;-80
2023/08/26 07:07:52;;;;;;;2.40;1.50;;;16.50;99.90;;;;;;5030213;28;20485;-79
2023/08/26 07:10:19;;;;;;;2.20;1.27;;;16.50;99.90;;;;;;5034396;28;21024;-79
2023/08/26 07:12:46;;;;;;;6.97;1.60;;;16.60;99.90;;;;;;5034928;28;20462;-80
2023/08/26 07:15:12;;;;;;;3.40;1.60;;;16.60;99.90;;;;;;5031170;28;20453;-81
2023/08/26 07:17:39;;;;;;;3.80;1.40;;;16.70;99.90;;;;;;5030376;28;20451;-78
2023/08/26 07:20:08;;;;;;;5.83;1.73;;;16.70;99.90;;;;;;5036097;28;20502;-78
2023/08/26 07:22:35;;;;;;;4.27;2.00;;;16.80;99.90;;;;;;5027611;28;20504;-80
2023/08/26 07:25:03;;;;;;;5.40;1.77;;;16.80;99.90;;;;;;5023885;28;20479;-79
2023/08/26 07:27:30;;;;;;;3.63;1.60;;;16.80;99.90;;;;;;5036297;28;20486;-80
2023/08/26 07:29:57;;;;;;;3.50;1.30;;;17.00;99.90;;;;;;5030215;28;20544;-80
2023/08/26 07:32:23;;;;;;;3.37;1.30;;;16.90;99.90;;;;;;5025507;28;20466;-80
2023/08/26 07:34:52;;;;;;;5.83;1.53;;;17.00;99.90;;;;;;5016739;28;20451;-80
2023/08/26 07:37:18;;;;;;;3.30;1.40;;;17.00;99.90;;;;;;5016734;28;20450;-79
2023/08/26 07:39:45;;;;;;;5.50;2.53;;;17.00;99.90;;;;;;5017353;28;20487;-80
2023/08/26 07:42:13;;;;;;;4.27;1.50;;;17.10;99.90;;;;;;5017322;28;20473;-79
2023/08/26 07:44:40;;;;;;;5.47;1.40;;;17.10;99.90;;;;;;5017671;28;20458;-81
2023/08/26 07:47:07;;;;;;;3.70;1.30;;;17.20;99.90;;;;;;5017403;28;20445;-80
2023/08/26 07:49:34;;;;;;;5.60;1.63;;;17.20;99.90;;;;;;5020429;28;20496;-81
2023/08/26 07:52:01;;;;;;;9.00;1.97;;;17.30;99.90;;;;;;5022782;28;20453;-81
2023/08/26 07:54:27;;;;;;;5.33;1.60;;;17.40;99.90;;;;;;5017781;28;20971;-81
2023/08/26 07:56:56;;;;;;;3.07;1.80;;;17.40;99.90;;;;;;5024811;28;20448;-80
2023/08/26 07:59:24;;;;;;;4.70;1.33;;;17.50;99.90;;;;;;5035374;28;20518;-79
2023/08/26 08:01:51;;;;;;;2.70;1.23;;;17.60;99.90;;;;;;5034387;28;20450;-79
2023/08/26 08:04:18;;;;;;;3.03;1.33;;;17.60;99.90;;;;;;5019949;28;20457;-81
2023/08/26 08:06:45;;;;;;;2.87;1.40;;;17.60;99.90;;;;;;5013251;28;20445;-80
2023/08/26 08:09:12;;;;;;;3.53;1.37;;;17.70;99.90;;;;;;5013274;28;20582;-80
2023/08/26 08:11:39;;;;;;;4.33;1.40;;;17.70;99.90;;;;;;5013589;28;20576;-79
2023/08/26 08:14:05;;;;;;;3.23;1.30;;;17.80;99.90;;;;;;5030234;28;20467;-78
2023/08/26 08:16:34;;;;;;;2.77;1.53;;;17.90;99.90;;;;;;5031106;28;20962;-79
2023/08/26 08:19:00;;;;;;;3.33;1.47;;;17.90;99.90;;;;;;5013216;28;20469;-80
2023/08/26 08:21:27;;;;;;;2.23;1.10;;;18.10;99.90;;;;;;5013138;28;20838;-79
2023/08/26 08:23:54;;;;;;;4.00;1.37;;;18.20;99.90;;;;;;5013653;28;20442;-77
2023/08/26 08:26:21;;;;;;;5.17;1.20;;;18.30;99.90;;;;;;5022958;28;20449;-79
2023/08/26 08:28:47;;;;;;;4.17;1.30;;;18.40;99.90;;;;;;5032890;28;21009;-78
2023/08/26 08:31:14;;;;;;;5.73;1.77;;;18.50;99.90;;;;;;5037325;28;20838;-78
2023/08/26 08:33:42;;;;;;;3.97;1.90;;;18.50;99.90;;;;;;5039932;28;20449;-79
2023/08/26 08:36:10;;;;;;;2.90;1.30;;;18.40;99.90;;;;;;5039177;28;20508;-79
2023/08/26 08:38:37;;;;;;;3.37;1.50;;;18.40;99.90;;;;;;5031660;28;20474;-78
2023/08/26 08:41:04;;;;;;;2.20;1.40;;;18.50;99.90;;;;;;5050246;28;20556;-79
2023/08/26 08:43:31;;;;;;;2.80;1.50;;;18.60;99.90;;;;;;5037412;28;20449;-78
2023/08/26 08:45:58;;;;;;;2.93;1.30;;;18.60;99.90;;;;;;5046389;28;20456;-79
2023/08/26 08:48:25;;;;;;;3.50;1.40;;;18.60;99.90;;;;;;5040548;28;20499;-79
2023/08/26 08:50:55;;;;;;;12.33;1.73;;;18.50;99.90;;;;;;5034059;28;20460;-79
2023/08/26 08:53:27;;;;;;;3.13;1.43;;;18.50;99.90;;;;;;5022736;28;21157;-77
2023/08/26 08:55:54;;;;;;;9.27;1.50;;;18.70;99.90;;;;;;5039266;28;20453;-78
2023/08/26 08:58:22;;;;;;;2.67;1.17;;;18.80;99.90;;;;;;5039452;28;20447;-79
2023/08/26 09:00:50;;;;;;;3.10;1.10;;;19.00;99.90;;;;;;5040039;28;20454;-81
2023/08/26 09:03:18;;;;;;;5.60;1.50;;;19.10;99.90;;;;;;5039723;28;20445;-77
2023/08/26 09:05:45;;;;;;;3.87;1.67;;;19.30;99.90;;;;;;5040201;28;20455;-79
2023/08/26 09:08:17;;;;;;;3.57;1.10;;;19.40;99.90;;;;;;5034101;28;20516;-78
2023/08/26 09:10:46;;;;;;;4.80;1.43;;;19.60;99.90;;;;;;5020710;28;20473;-77
2023/08/26 09:13:13;;;;;;;5.17;1.20;;;19.60;99.90;;;;;;5033060;28;21138;-77
2023/08/26 09:15:40;;;;;;;4.60;1.20;;;19.60;99.90;;;;;;5040175;28;20516;-77
2023/08/26 09:18:09;;;;;;;3.10;1.43;;;19.60;99.90;;;;;;5040378;28;20445;-79
2023/08/26 09:20:39;;;;;;;4.73;1.40;;;19.70;99.90;;;;;;5034962;28;20464;-80
2023/08/26 09:23:07;;;;;;;3.03;1.20;;;19.80;99.90;;;;;;5021922;28;21022;-78
2023/08/26 09:25:36;;;;;;;4.60;1.17;;;19.80;99.90;;;;;;5036269;28;20461;-79
2023/08/26 09:28:04;;;;;;;3.30;1.40;;;19.90;99.90;;;;;;5023032;28;20441;-80
2023/08/26 09:30:30;;;;;;;3.53;1.23;;;19.80;99.90;;;;;;5033765;28;20464;-79
2023/08/26 09:32:58;;;;;;;2.00;1.00;;;20.00;99.90;;;;;;5021379;28;20450;-79
2023/08/26 09:35:24;;;;;;;5.20;1.37;;;20.00;99.90;;;;;;5029326;28;20448;-80
2023/08/26 09:37:58;;;;;;;3.60;1.27;;;20.00;99.90;;;;;;5040097;28;20969;-79
2023/08/26 09:40:25;;;;;;;3.47;1.30;;;20.00;99.90;;;;;;5030983;28;20951;-80
2023/08/26 09:42:54;;;;;;;2.93;1.00;;;20.20;99.90;;;;;;5019525;28;20816;-79
2023/08/26 09:45:21;;;;;;;3.80;1.10;;;20.40;99.90;;;;;;5018836;28;20456;-81
2023/08/26 09:47:50;;;;;;;2.73;1.47;;;20.70;99.90;;;;;;5019603;28;20477;-80
2023/08/26 09:50:17;;;;;;;2.80;1.30;;;20.60;99.90;;;;;;5018817;28;20496;-79
2023/08/26 09:52:45;;;;;;;2.30;0.80;;;20.60;99.90;;;;;;5018960;28;20500;-80
2023/08/26 09:55:12;;;;;;;2.70;1.43;;;20.60;99.90;;;;;;5019854;28;20461;-79
2023/08/26 09:57:39;;;;;;;3.10;1.13;;;20.80;99.90;;;;;;5019674;28;20458;-81
2023/08/26 10:00:11;;;;;;;3.80;1.00;;;20.80;99.90;;;;;;5021240;28;20473;-79
2023/08/26 10:02:39;;;;;;;3.47;1.10;;;20.60;99.90;;;;;;5027114;28;20446;-79
2023/08/26 10:05:14;;;;;;;3.13;1.40;;;20.50;99.90;;;;;;5016548;28;20545;-79
2023/08/26 10:07:42;;;;;;;2.03;0.90;;;20.70;99.90;;;;;;5024327;28;20457;-78
2023/08/26 10:10:14;;;;;;;2.97;1.10;;;21.00;99.90;;;;;;5037010;28;20503;-80
2023/08/26 10:12:43;;;;;;;3.13;1.20;;;21.40;99.90;;;;;;5030977;28;20456;-80
2023/08/26 10:15:13;;;;;;;3.43;1.07;;;21.90;99.90;;;;;;5017343;28;20469;-78
2023/08/26 10:17:44;;;;;;;2.00;1.10;;;22.20;99.90;;;;;;5033559;28;20819;-80
2023/08/26 10:20:13;;;;;;;2.20;1.00;;;22.20;99.90;;;;;;5026471;28;20477;-79
2023/08/26 10:22:40;;;;;;;2.83;1.30;;;22.10;99.90;;;;;;5024551;28;20982;-78
2023/08/26 10:25:10;;;;;;;2.33;1.23;;;22.40;99.90;;;;;;5036853;28;20484;-79
2023/08/26 10:27:38;;;;;;;2.73;1.10;;;22.60;99.90;;;;;;5032392;28;20536;-81
2023/08/26 10:30:07;;;;;;;2.77;1.30;;;22.60;99.90;;;;;;5025825;28;20495;-81
2023/08/26 10:32:43;;;;;;;3.27;1.00;;;22.90;99.90;;;;;;5026169;28;20895;-80
2023/08/26 10:35:14;;;;;;;2.63;1.13;;;23.40;99.90;;;;;;5026165;28;20464;-81
2023/08/26 10:37:41;;;;;;;2.20;0.80;;;23.60;99.90;;;;;;5028508;28;20830;-81
2023/08/26 10:40:12;;;;;;;2.10;1.00;;;23.80;99.90;;;;;;5017607;28;20557;-81
2023/08/26 10:42:39;;;;;;;3.73;1.00;;;23.90;99.90;;;;;;5018093;28;20449;-81
2023/08/26 10:45:14;;;;;;;2.97;1.30;;;24.10;99.90;;;;;;5028651;28;20486;-79
2023/08/26 10:47:45;;;;;;;3.73;1.20;;;24.00;99.90;;;;;;5025777;28;20450;-81
2023/08/26 10:50:19;;;;;;;3.50;1.23;;;24.00;99.90;;;;;;5024804;28;20497;-81
2023/08/26 10:52:49;;;;;;;2.43;1.00;;;24.00;99.90;;;;;;5033313;28;20464;-81
2023/08/26 10:55:21;;;;;;;2.30;1.00;;;24.00;99.90;;;;;;5037384;28;20445;-81
2023/08/26 10:58:12;;;;;;;2.37;1.17;;;24.00;99.90;;;;;;5017942;28;20452;-80
2023/08/26 11:00:40;;;;;;;2.90;1.00;;;24.20;99.90;;;;;;5021006;28;20445;-80
2023/08/26 11:03:09;;;;;;;2.30;1.10;;;24.70;99.90;;;;;;5032577;28;20450;-81
2023/08/26 11:05:37;;;;;;;3.60;1.30;;;24.80;99.90;;;;;;5017521;28;20459;-81
2023/08/26 11:08:05;;;;;;;2.80;0.90;;;24.90;99.90;;;;;;5017991;28;20869;-79
2023/08/26 11:10:33;;;;;;;2.80;1.03;;;25.00;99.90;;;;;;5071978;23;21104;-81
2023/08/26 11:13:00;;;;;;;2.03;1.30;;;24.80;99.90;;;;;;5059286;28;20467;-79
2023/08/26 11:15:31;;;;;;;2.03;0.90;;;24.80;99.90;;;;;;5058645;28;20527;-85
2023/08/26 11:17:58;;;;;;;3.00;1.20;;;24.70;99.90;;;;;;5059046;28;20444;-80
2023/08/26 11:20:28;;;;;;;2.70;0.80;;;24.70;99.90;;;;;;5058727;28;20464;-81
2023/08/26 11:22:55;;;;;;;1.70;0.80;;;24.90;99.90;;;;;;5057846;28;20452;-84
2023/08/26 11:25:23;;;;;;;1.70;0.80;;;25.10;99.90;;;;;;5052743;28;20972;-82
2023/08/26 11:27:50;;;;;;;4.07;1.20;;;24.70;99.90;;;;;;5055299;28;20444;-82
2023/08/26 11:30:17;;;;;;;2.20;0.93;;;24.30;99.90;;;;;;5046488;28;20576;-83
2023/08/26 11:32:48;;;;;;;2.80;1.37;;;24.40;99.90;;;;;;5054789;28;20456;-83
2023/08/26 11:35:15;;;;;;;2.20;1.00;;;24.80;99.90;;;;;;5056739;28;20453;-83
2023/08/26 11:37:46;;;;;;;3.00;0.87;;;24.60;99.90;;;;;;5056296;28;20486;-82
2023/08/26 11:40:15;;;;;;;1.97;0.73;;;24.80;99.90;;;;;;5056599;28;20552;-81
2023/08/26 11:42:42;;;;;;;1.70;0.90;;;24.90;99.90;;;;;;5056804;28;20460;-80
2023/08/26 11:45:10;;;;;;;2.63;1.20;;;24.70;99.90;;;;;;5057554;28;20939;-82
2023/08/26 11:47:37;;;;;;;1.60;0.73;;;24.30;99.90;;;;;;5059152;28;20448;-83
2023/08/26 11:50:04;;;;;;;3.23;1.00;;;24.60;99.90;;;;;;5057855;28;20590;-82
2023/08/26 11:52:35;;;;;;;3.13;1.10;;;24.70;99.90;;;;;;5058524;28;20483;-82
2023/08/26 11:55:04;;;;;;;1.67;0.77;;;24.80;99.90;;;;;;5058399;28;20888;-81
2023/08/26 11:57:35;;;;;;;2.10;0.93;;;24.40;99.90;;;;;;5057440;28;20455;-82
2023/08/26 12:00:12;;;;;;;5.07;1.17;;;24.50;99.90;;;;;;5058256;28;20468;-82
2023/08/26 12:02:41;;;;;;;1.60;0.80;;;25.10;99.90;;;;;;5058975;28;20493;-84
2023/08/26 12:05:09;;;;;;;1.87;1.00;;;25.10;99.90;;;;;;5057302;28;20490;-80
2023/08/26 12:07:35;;;;;;;3.20;1.00;;;25.30;99.90;;;;;;5062106;28;20476;-83
2023/08/26 12:10:11;;;;;;;1.93;0.80;;;24.90;99.90;;;;;;5053943;28;21066;-81
2023/08/26 12:12:39;;;;;;;2.20;1.00;;;24.90;99.90;;;;;;5042470;28;20453;-82
2023/08/26 12:15:07;;;;;;;2.17;0.90;;;25.20;99.90;;;;;;5048747;28;20524;-80
2023/08/26 12:17:43;;;;;;;1.97;1.00;;;24.80;99.90;;;;;;5061291;28;20539;-81
2023/08/26 12:20:20;;;;;;;3.60;1.00;;;25.20;99.90;;;;;;5062463;28;20459;-82
2023/08/26 12:22:48;;;;;;;2.00;0.80;;;25.80;99.90;;;;;;5055844;28;20452;-80
2023/08/26 12:25:19;;;;;;;2.03;1.00;;;26.10;99.90;;;;;;5049146;28;20455;-84
2023/08/26 12:27:46;;;;;;;3.63;0.93;;;25.60;99.00;;;;;;5043489;28;20458;-85
2023/08/26 12:30:13;;;;;;;3.20;1.30;;;25.80;99.90;;;;;;5057575;28;20492;-83
2023/08/26 12:32:39;;;;;;;1.90;0.90;;;26.40;99.90;;;;;;5058843;28;20460;-86
2023/08/26 12:35:08;;;;;;;2.97;0.90;;;26.60;99.90;;;;;;5048135;28;20436;-80
2023/08/26 12:37:35;;;;;;;1.90;1.00;;;26.80;99.90;;;;;;5047219;28;20467;-83
2023/08/26 12:40:04;;;;;;;2.73;1.03;;;27.20;99.90;;;;;;5049814;28;21902;-83
2023/08/26 12:42:33;;;;;;;2.37;0.90;;;27.60;99.90;;;;;;5045341;28;20452;-83
2023/08/26 12:45:00;;;;;;;2.23;1.03;;;27.10;92.80;;;;;;5058353;28;20432;-84
2023/08/26 12:47:27;;;;;;;2.03;0.90;;;27.20;94.80;;;;;;5039475;28;20464;-83